Time;durP1;ratioP1;P1;durP2;ratioP2;P2;SDS_P1;SDS_P2;PMS_P1;PMS_P2;Temp;Humidity;BMP_temperature;BMP_pressure;BME280_temperature;BME280_humidity;BME280_pressure;Samples;Min_cycle;Max_cycle;Signal;HPM_P1;HPM_P2
2022/06/06 00:00:46;;;;;;;4.03;2.78;;;21.10;70.90;;;;;;5007217;28;20469;-77
2022/06/06 00:03:12;;;;;;;2.80;2.03;;;21.20;71.30;;;;;;5002988;28;20140;-76
2022/06/06 00:05:44;;;;;;;3.53;2.38;;;21.20;71.10;;;;;;4990304;28;20033;-76
2022/06/06 00:08:14;;;;;;;4.10;2.47;;;21.20;72.00;;;;;;5010703;28;20041;-77
2022/06/06 00:10:41;;;;;;;3.13;2.47;;;21.20;71.90;;;;;;5002956;28;20045;-77
2022/06/06 00:13:09;;;;;;;3.10;2.22;;;21.10;71.80;;;;;;5005335;28;20030;-76
2022/06/06 00:15:34;;;;;;;2.53;2.00;;;21.10;71.80;;;;;;5007433;28;20026;-75
2022/06/06 00:18:01;;;;;;;4.65;2.80;;;21.10;71.40;;;;;;5006802;28;20072;-76
2022/06/06 00:20:27;;;;;;;3.75;2.13;;;21.00;71.70;;;;;;5005293;28;20117;-76
2022/06/06 00:22:52;;;;;;;2.70;1.98;;;21.00;71.30;;;;;;5005077;28;20114;-76
2022/06/06 00:25:18;;;;;;;3.08;2.40;;;21.00;71.40;;;;;;5015325;28;20030;-76
2022/06/06 00:27:43;;;;;;;4.05;2.70;;;21.00;71.80;;;;;;5008464;28;20037;-76
2022/06/06 00:30:09;;;;;;;2.97;2.33;;;21.00;72.30;;;;;;5007812;28;20056;-76
2022/06/06 00:35:20;;;;;;;3.78;2.20;;;20.90;72.20;;;;;;5008689;28;20425;-76
2022/06/06 00:37:47;;;;;;;2.25;1.95;;;21.00;72.30;;;;;;5007308;28;20019;-76
2022/06/06 00:40:15;;;;;;;3.78;2.33;;;21.00;72.50;;;;;;5008241;28;20412;-76
2022/06/06 00:42:42;;;;;;;3.75;2.50;;;20.90;72.40;;;;;;5006639;28;20033;-76
2022/06/06 00:45:20;;;;;;;2.97;2.08;;;21.00;72.30;;;;;;5001498;28;20040;-76
2022/06/06 00:47:52;;;;;;;2.95;2.17;;;21.00;72.30;;;;;;5007013;28;20018;-77
2022/06/06 00:50:40;;;;;;;3.70;2.40;;;21.00;71.70;;;;;;5009659;28;20042;-76
2022/06/06 00:53:08;;;;;;;3.55;2.38;;;21.00;72.20;;;;;;4960296;28;20139;-76
2022/06/06 00:55:41;;;;;;;3.13;2.42;;;21.00;72.10;;;;;;4993389;28;20043;-76
2022/06/06 00:58:12;;;;;;;4.03;2.60;;;21.10;71.70;;;;;;4988824;28;20026;-76
2022/06/06 01:00:38;;;;;;;;;;;21.00;71.10;;;;;;4989753;28;20560;-76
2022/06/06 01:03:06;;;;;;;3.25;2.47;;;21.00;72.50;;;;;;4989815;28;19996;-76
2022/06/06 01:05:33;;;;;;;3.38;2.13;;;20.90;73.10;;;;;;4990632;28;20045;-75
2022/06/06 01:07:58;;;;;;;3.17;2.38;;;21.00;74.50;;;;;;4986278;28;20044;-76
2022/06/06 01:10:24;;;;;;;3.70;2.30;;;21.00;74.90;;;;;;4979868;28;20109;-76
2022/06/06 01:12:53;;;;;;;3.88;2.78;;;21.00;80.00;;;;;;4985547;28;20362;-76
2022/06/06 01:15:22;;;;;;;3.75;2.65;;;21.00;86.10;;;;;;4990817;28;20045;-76
2022/06/06 01:18:12;;;;;;;2.83;2.33;;;20.90;85.30;;;;;;4992533;28;20441;-76
2022/06/06 01:21:02;;;;;;;3.25;2.80;;;20.70;90.50;;;;;;4987694;28;20094;-77
2022/06/06 01:23:54;;;;;;;4.75;2.85;;;20.60;92.80;;;;;;4983868;28;20027;-76
2022/06/06 01:26:44;;;;;;;3.90;2.85;;;20.60;94.50;;;;;;4986491;28;20481;-76
2022/06/06 01:29:22;;;;;;;3.38;2.42;;;20.50;95.40;;;;;;4987470;28;20035;-76
2022/06/06 01:31:57;;;;;;;3.53;2.47;;;20.50;97.60;;;;;;4982473;28;20034;-77
2022/06/06 01:34:31;;;;;;;3.03;2.30;;;20.30;97.60;;;;;;4986752;28;20130;-77
2022/06/06 01:36:58;;;;;;;4.00;2.58;;;20.20;99.70;;;;;;4968673;28;20030;-77
2022/06/06 01:39:26;;;;;;;3.97;2.50;;;20.20;99.90;;;;;;4990926;28;20026;-77
2022/06/06 01:42:17;;;;;;;4.72;2.92;;;20.20;99.90;;;;;;4991201;28;20089;-77
2022/06/06 01:45:00;;;;;;;2.93;2.37;;;20.20;99.90;;;;;;4992293;28;20057;-77
2022/06/06 01:47:32;;;;;;;3.47;2.20;;;20.20;99.90;;;;;;4989505;28;20191;-77
2022/06/06 01:49:59;;;;;;;3.45;2.58;;;20.20;99.90;;;;;;4981992;28;20034;-77
2022/06/06 01:52:24;;;;;;;4.93;2.92;;;20.10;99.90;;;;;;4991087;28;20080;-77
2022/06/06 01:54:55;;;;;;;3.58;2.80;;;20.10;99.90;;;;;;4993515;28;20439;-77
2022/06/06 01:57:21;;;;;;;4.20;2.83;;;20.10;99.90;;;;;;5011036;28;20034;-77
2022/06/06 01:59:46;;;;;;;3.85;2.70;;;20.10;99.90;;;;;;5009293;28;20037;-77
2022/06/06 02:02:12;;;;;;;3.55;2.67;;;20.10;99.90;;;;;;5010550;28;20589;-77
2022/06/06 02:04:37;;;;;;;5.00;3.13;;;20.10;99.90;;;;;;5008763;28;20049;-76
2022/06/06 02:07:03;;;;;;;4.30;3.00;;;20.10;99.90;;;;;;5009131;28;20077;-77
2022/06/06 02:09:31;;;;;;;3.88;2.80;;;19.90;99.90;;;;;;4999787;28;20042;-77
2022/06/06 02:11:58;;;;;;;3.97;3.10;;;19.90;99.90;;;;;;5006982;28;20026;-77
2022/06/06 02:14:24;;;;;;;6.25;3.45;;;20.00;99.90;;;;;;5005499;28;20440;-77
2022/06/06 02:16:49;;;;;;;3.80;2.75;;;20.00;99.90;;;;;;5008439;28;20052;-76
2022/06/06 02:19:15;;;;;;;4.55;3.40;;;20.00;99.90;;;;;;5008567;28;20088;-76
2022/06/06 02:21:40;;;;;;;6.50;3.10;;;19.90;99.90;;;;;;5008221;28;20033;-76
2022/06/06 02:24:06;;;;;;;3.88;2.80;;;19.80;99.90;;;;;;5001885;28;20030;-77
2022/06/06 02:26:31;;;;;;;5.10;3.70;;;19.70;99.90;;;;;;5010329;28;20811;-77
2022/06/06 02:28:57;;;;;;;6.10;3.00;;;19.70;99.90;;;;;;5008447;28;20025;-77
2022/06/06 02:31:22;;;;;;;5.43;3.25;;;19.60;99.90;;;;;;5008437;28;20456;-76
2022/06/06 02:33:48;;;;;;;4.40;2.95;;;19.50;99.90;;;;;;5006081;28;20033;-77
2022/06/06 02:36:13;;;;;;;4.85;3.28;;;19.40;99.90;;;;;;5006559;28;20064;-77
2022/06/06 02:38:39;;;;;;;2.88;2.38;;;19.30;99.90;;;;;;5008149;28;20469;-77
2022/06/06 02:41:07;;;;;;;4.10;2.75;;;19.30;99.90;;;;;;5010433;28;20045;-77
2022/06/06 02:43:39;;;;;;;3.50;3.10;;;19.30;99.90;;;;;;5007576;28;20060;-76
2022/06/06 02:46:08;;;;;;;4.72;3.22;;;19.20;99.90;;;;;;5006682;28;20480;-76
2022/06/06 02:48:34;;;;;;;5.07;3.08;;;19.20;99.90;;;;;;5009176;28;20038;-76
2022/06/06 02:51:02;;;;;;;6.32;2.80;;;19.10;99.90;;;;;;5005032;28;20033;-77
2022/06/06 02:53:27;;;;;;;5.20;3.40;;;19.20;99.90;;;;;;5006096;28;20022;-77
2022/06/06 02:55:54;;;;;;;3.72;2.63;;;19.10;99.90;;;;;;5009364;28;20068;-77
2022/06/06 02:58:24;;;;;;;5.20;3.05;;;19.10;99.90;;;;;;5006838;28;20073;-77
2022/06/06 03:00:53;;;;;;;5.07;3.38;;;19.10;99.90;;;;;;5008879;28;20026;-77
2022/06/06 03:03:18;;;;;;;4.70;3.25;;;19.00;99.90;;;;;;5002275;28;20033;-77
2022/06/06 03:06:04;;;;;;;5.93;3.47;;;19.00;99.90;;;;;;5006541;28;20036;-77
2022/06/06 03:09:00;;;;;;;5.32;3.13;;;19.10;99.90;;;;;;5007525;28;20033;-77
2022/06/06 03:12:06;;;;;;;6.65;3.15;;;19.10;99.90;;;;;;5001999;28;20030;-77
2022/06/06 03:14:44;;;;;;;5.07;2.88;;;19.10;99.90;;;;;;4959131;28;20116;-77
2022/06/06 03:23:31;;;;;;;3.33;2.60;;;19.00;99.90;;;;;;5005836;28;20056;-78
2022/06/06 03:26:32;;;;;;;6.80;3.42;;;19.00;99.90;;;;;;5001441;28;20030;-78
2022/06/06 03:29:24;;;;;;;5.00;3.17;;;19.10;99.90;;;;;;5009748;28;20029;-78
2022/06/06 03:32:40;;;;;;;5.15;3.20;;;19.00;99.90;;;;;;5007684;28;20036;-77
2022/06/06 03:35:24;;;;;;;3.38;2.92;;;19.00;99.90;;;;;;4969965;28;20088;-77
2022/06/06 03:38:07;;;;;;;5.70;3.53;;;18.80;99.90;;;;;;5003067;28;20037;-78
2022/06/06 03:41:03;;;;;;;5.10;3.15;;;18.90;99.90;;;;;;5004926;28;20365;-77
2022/06/06 03:43:41;;;;;;;5.90;3.75;;;18.80;99.90;;;;;;5012201;28;20112;-77
2022/06/06 03:46:55;;;;;;;5.07;3.75;;;18.80;99.90;;;;;;5006923;28;20037;-76
2022/06/06 03:49:51;;;;;;;6.50;3.65;;;18.60;99.90;;;;;;5008084;28;20026;-76
2022/06/06 03:52:25;;;;;;;6.63;4.22;;;18.40;99.90;;;;;;5007775;28;20034;-76
2022/06/06 03:55:12;;;;;;;6.25;4.10;;;18.40;99.90;;;;;;5004498;28;20045;-75
2022/06/06 03:57:39;;;;;;;8.35;4.15;;;18.40;99.90;;;;;;5000977;28;20061;-75
2022/06/06 04:00:14;;;;;;;8.40;4.22;;;18.30;99.90;;;;;;5008228;28;20041;-76
2022/06/06 04:02:42;;;;;;;9.63;4.00;;;18.40;99.90;;;;;;5006783;28;20034;-76
2022/06/06 04:05:19;;;;;;;5.53;4.22;;;18.30;99.90;;;;;;5006790;28;20473;-76
2022/06/06 04:07:45;;;;;;;6.85;3.33;;;18.40;99.90;;;;;;5003365;28;20056;-76
2022/06/06 04:10:12;;;;;;;5.20;3.28;;;18.50;99.90;;;;;;5008542;28;20030;-75
2022/06/06 04:12:51;;;;;;;6.63;4.20;;;18.60;99.90;;;;;;5006128;28;20026;-76
2022/06/06 04:15:48;;;;;;;6.88;3.60;;;18.60;99.90;;;;;;5006445;28;20801;-76
2022/06/06 04:18:33;;;;;;;6.45;4.22;;;18.70;99.90;;;;;;5000378;28;20045;-76
2022/06/06 04:21:10;;;;;;;4.70;3.20;;;18.80;99.90;;;;;;5007879;28;20495;-76
2022/06/06 04:24:07;;;;;;;4.00;3.03;;;18.80;99.90;;;;;;5001129;28;20400;-76
2022/06/06 04:26:42;;;;;;;8.55;3.92;;;18.80;99.90;;;;;;5003409;28;20546;-76
2022/06/06 04:29:18;;;;;;;5.78;4.03;;;18.80;99.90;;;;;;5004006;28;20026;-76
2022/06/06 04:32:08;;;;;;;8.55;4.03;;;18.80;99.90;;;;;;5004523;28;20033;-76
2022/06/06 04:34:53;;;;;;;6.25;3.47;;;18.80;99.90;;;;;;5003744;28;20113;-77
2022/06/06 04:37:43;;;;;;;6.53;3.70;;;18.70;99.90;;;;;;5002117;28;20030;-76
2022/06/06 04:40:43;;;;;;;6.00;3.30;;;18.60;99.90;;;;;;5003740;28;20026;-76
2022/06/06 04:43:22;;;;;;;6.70;4.43;;;18.60;99.90;;;;;;5015002;28;20030;-76
2022/06/06 04:46:08;;;;;;;7.13;3.95;;;18.70;99.90;;;;;;5010873;28;20033;-75
2022/06/06 04:48:35;;;;;;;5.25;3.72;;;18.80;99.90;;;;;;5012803;28;20072;-77
2022/06/06 04:51:02;;;;;;;7.60;4.30;;;18.90;99.90;;;;;;5011166;28;20030;-76
2022/06/06 04:53:30;;;;;;;5.10;3.70;;;18.90;99.90;;;;;;5008331;28;20037;-77
2022/06/06 04:55:57;;;;;;;7.72;3.90;;;18.90;99.90;;;;;;5010726;28;20053;-77
2022/06/06 04:58:27;;;;;;;6.60;3.47;;;18.90;99.90;;;;;;5012953;28;20141;-76
2022/06/06 05:00:54;;;;;;;6.85;3.78;;;19.00;99.90;;;;;;5012151;28;20504;-78
2022/06/06 05:03:20;;;;;;;6.05;3.90;;;18.90;99.90;;;;;;4994503;28;20034;-77
2022/06/06 05:06:12;;;;;;;6.53;4.10;;;18.90;99.90;;;;;;5011762;28;20033;-76
2022/06/06 05:08:50;;;;;;;6.18;3.95;;;18.90;99.90;;;;;;5011413;28;20508;-77
2022/06/06 05:11:33;;;;;;;8.15;3.40;;;19.00;99.90;;;;;;5011364;28;20069;-77
2022/06/06 05:14:13;;;;;;;6.07;3.50;;;19.00;99.90;;;;;;5009591;28;20032;-77
2022/06/06 05:17:07;;;;;;;8.18;3.70;;;18.90;99.90;;;;;;5006029;28;20033;-77
2022/06/06 05:19:54;;;;;;;5.07;3.58;;;19.00;99.90;;;;;;5003416;28;20104;-76
2022/06/06 05:22:48;;;;;;;7.35;3.38;;;19.10;99.90;;;;;;5008624;28;20409;-77
2022/06/06 05:25:33;;;;;;;6.38;3.65;;;19.00;99.90;;;;;;5007333;28;20060;-77
2022/06/06 05:28:15;;;;;;;7.97;3.55;;;19.10;99.90;;;;;;5008394;28;20033;-77
2022/06/06 05:30:54;;;;;;;6.68;3.42;;;19.20;99.90;;;;;;5010406;28;20092;-77
2022/06/06 05:33:36;;;;;;;6.25;3.70;;;19.30;99.90;;;;;;5008981;28;20092;-77
2022/06/06 05:36:28;;;;;;;4.40;3.38;;;19.40;99.90;;;;;;5007391;28;20040;-77
2022/06/06 05:39:29;;;;;;;6.15;3.38;;;19.50;99.90;;;;;;5008123;28;20160;-77
2022/06/06 05:42:17;;;;;;;4.35;2.83;;;19.50;99.90;;;;;;5009864;28;20030;-77
2022/06/06 05:44:53;;;;;;;3.35;2.58;;;19.70;99.90;;;;;;5008928;28;20025;-77
2022/06/06 05:47:37;;;;;;;4.10;2.63;;;19.60;99.90;;;;;;5009956;28;20022;-77
2022/06/06 05:50:07;;;;;;;4.53;3.00;;;19.70;99.90;;;;;;5001974;28;20110;-78
2022/06/06 05:52:44;;;;;;;3.83;2.80;;;19.90;99.90;;;;;;5000504;28;20026;-75
2022/06/06 05:55:50;;;;;;;4.18;2.80;;;19.90;99.90;;;;;;5010418;28;20304;-76
2022/06/06 05:58:52;;;;;;;6.15;2.75;;;19.90;99.90;;;;;;4952718;28;20037;-77
2022/06/06 06:01:46;;;;;;;4.57;2.50;;;20.20;99.90;;;;;;5001876;28;20034;-76
2022/06/06 06:04:33;;;;;;;3.08;2.38;;;20.40;99.90;;;;;;5001911;28;20483;-76
2022/06/06 06:07:21;;;;;;;2.97;2.58;;;20.60;99.90;;;;;;5009508;28;20396;-75
2022/06/06 06:10:12;;;;;;;3.20;2.42;;;20.70;99.90;;;;;;5008508;28;20021;-74
2022/06/06 06:12:51;;;;;;;;;;;20.40;99.90;;;;;;4999932;28;20052;-74
2022/06/06 06:15:31;;;;;;;2.88;2.28;;;20.60;99.90;;;;;;5000833;28;19909;-75
2022/06/06 06:17:57;;;;;;;5.40;2.92;;;20.80;99.90;;;;;;5005675;28;20487;-75
2022/06/06 06:20:35;;;;;;;3.25;2.20;;;20.50;99.90;;;;;;5010654;28;20036;-76
2022/06/06 06:23:07;;;;;;;2.67;1.92;;;20.60;99.90;;;;;;5002320;28;20399;-77
2022/06/06 06:25:39;;;;;;;4.63;2.95;;;20.70;99.90;;;;;;5009425;28;20029;-76
2022/06/06 06:28:10;;;;;;;2.15;1.80;;;20.60;99.90;;;;;;5006855;28;20115;-76
2022/06/06 06:30:47;;;;;;;4.43;2.70;;;20.50;99.90;;;;;;5006887;28;20048;-75
2022/06/06 06:33:24;;;;;;;3.53;2.33;;;20.30;99.90;;;;;;5005337;28;20092;-74
2022/06/06 06:36:07;;;;;;;2.30;1.80;;;20.00;99.90;;;;;;5007609;28;20105;-75
2022/06/06 06:38:59;;;;;;;2.78;2.20;;;20.00;99.90;;;;;;5006102;28;20033;-74
2022/06/06 06:41:43;;;;;;;3.35;2.55;;;19.80;99.90;;;;;;5002581;28;20030;-75
2022/06/06 06:44:11;;;;;;;2.97;2.28;;;19.70;99.90;;;;;;5004816;28;20367;-74
2022/06/06 06:46:58;;;;;;;3.25;2.00;;;19.50;99.90;;;;;;5006406;28;20026;-74
2022/06/06 06:49:39;;;;;;;3.55;2.58;;;19.40;99.90;;;;;;5007847;28;20041;-73
2022/06/06 06:52:17;;;;;;;3.75;2.55;;;19.40;99.90;;;;;;5005748;28;20067;-75
2022/06/06 06:55:05;;;;;;;3.25;2.35;;;19.40;99.90;;;;;;5004912;28;20459;-78
2022/06/06 06:58:05;;;;;;;2.78;2.17;;;19.40;99.90;;;;;;5006444;28;20592;-75
2022/06/06 07:00:41;;;;;;;2.97;2.38;;;19.40;99.90;;;;;;5006327;28;20084;-76
2022/06/06 07:09:55;;;;;;;2.65;2.22;;;19.60;99.90;;;;;;5009228;28;20041;-75
2022/06/06 07:12:36;;;;;;;4.88;2.83;;;19.60;99.90;;;;;;5009412;28;20092;-76
2022/06/06 07:15:26;;;;;;;2.75;2.22;;;19.70;99.90;;;;;;5010234;28;20026;-75
2022/06/06 07:17:58;;;;;;;4.90;2.40;;;19.60;99.90;;;;;;5010849;28;20041;-75
2022/06/06 07:20:26;;;;;;;3.88;1.95;;;19.70;99.90;;;;;;5009589;28;20058;-76
2022/06/06 07:22:59;;;;;;;3.05;2.15;;;19.70;99.90;;;;;;5010395;28;20121;-75
2022/06/06 07:25:27;;;;;;;2.85;1.92;;;19.80;99.90;;;;;;5010227;28;20029;-75
2022/06/06 07:27:53;;;;;;;3.65;2.03;;;19.90;99.90;;;;;;5009883;28;20080;-75
2022/06/06 07:30:21;;;;;;;4.10;2.33;;;19.90;99.90;;;;;;5010340;28;20022;-75
2022/06/06 07:33:13;;;;;;;5.05;2.28;;;20.00;99.90;;;;;;5010316;28;20115;-75
2022/06/06 07:35:59;;;;;;;3.35;2.30;;;20.10;99.90;;;;;;5009426;28;20447;-74
2022/06/06 07:38:51;;;;;;;3.47;2.20;;;20.20;99.90;;;;;;5010172;28;20044;-75
2022/06/06 07:41:19;;;;;;;3.42;2.25;;;20.20;99.90;;;;;;5015232;28;20029;-75
2022/06/06 07:44:20;;;;;;;3.80;2.53;;;20.40;99.90;;;;;;5009999;28;20250;-75
2022/06/06 07:46:57;;;;;;;1.73;1.33;;;20.40;99.90;;;;;;5009045;28;20085;-76
2022/06/06 07:49:54;;;;;;;5.95;2.70;;;20.40;99.90;;;;;;5009628;28;20060;-76
2022/06/06 07:52:44;;;;;;;3.35;2.10;;;20.40;99.90;;;;;;5009252;28;20401;-75
2022/06/06 07:55:41;;;;;;;3.00;1.92;;;20.40;99.90;;;;;;5008724;28;20045;-75
2022/06/06 07:58:15;;;;;;;1.98;1.50;;;20.50;99.90;;;;;;5010492;28;20034;-76
2022/06/06 08:00:41;;;;;;;3.67;2.50;;;20.50;99.90;;;;;;5009743;28;20057;-76
2022/06/06 08:03:41;;;;;;;3.00;1.70;;;20.50;99.90;;;;;;5009532;28;20053;-75
2022/06/06 08:06:23;;;;;;;2.05;1.52;;;20.70;99.90;;;;;;4986883;28;20253;-76
2022/06/06 08:09:14;;;;;;;2.40;1.70;;;20.80;99.90;;;;;;5008442;28;20030;-76
2022/06/06 08:11:55;;;;;;;3.20;2.00;;;21.20;99.90;;;;;;5009552;28;20030;-76
2022/06/06 08:15:05;;;;;;;2.00;1.58;;;21.30;99.90;;;;;;5007008;28;20030;-76
2022/06/06 08:17:37;;;;;;;2.45;1.92;;;21.30;99.90;;;;;;4984093;28;20036;-76
2022/06/06 08:20:27;;;;;;;1.63;1.42;;;21.40;99.90;;;;;;5011154;28;20030;-76
2022/06/06 08:22:56;;;;;;;2.67;1.75;;;21.40;99.90;;;;;;5009086;28;20753;-76
2022/06/06 08:25:22;;;;;;;2.50;1.67;;;21.40;99.90;;;;;;5009149;28;20030;-76
2022/06/06 08:27:51;;;;;;;2.58;1.90;;;21.60;99.90;;;;;;5008628;28;20030;-75
2022/06/06 08:30:19;;;;;;;1.73;1.35;;;21.40;99.20;;;;;;5001630;28;20030;-77
2022/06/06 08:32:45;;;;;;;2.47;1.75;;;21.40;99.90;;;;;;4999665;28;20118;-74
2022/06/06 08:35:11;;;;;;;1.92;1.67;;;21.80;99.30;;;;;;5007276;28;20124;-74
2022/06/06 08:38:24;;;;;;;1.63;1.42;;;22.20;99.90;;;;;;5004216;28;20573;-75
2022/06/06 08:41:27;;;;;;;2.28;1.60;;;22.60;94.30;;;;;;5009256;28;20508;-77
2022/06/06 08:44:13;;;;;;;2.72;1.73;;;22.60;92.00;;;;;;5004688;28;20026;-76
2022/06/06 08:46:56;;;;;;;4.32;1.65;;;22.60;94.60;;;;;;5001433;28;20056;-76
2022/06/06 08:53:15;;;;;;;1.80;1.30;;;22.70;90.80;;;;;;5004507;28;20705;-77
2022/06/06 08:56:03;;;;;;;1.88;1.50;;;22.80;91.10;;;;;;5007087;28;20172;-77
2022/06/06 08:59:07;;;;;;;1.55;1.35;;;22.70;89.50;;;;;;5008637;28;20105;-82
2022/06/06 09:02:10;;;;;;;1.75;1.38;;;22.20;90.50;;;;;;5004030;28;20022;-78
2022/06/06 09:05:13;;;;;;;1.75;1.35;;;22.10;90.00;;;;;;5005612;28;20081;-81
2022/06/06 09:08:15;;;;;;;2.25;1.60;;;22.30;89.50;;;;;;5001176;28;20026;-83
2022/06/06 09:11:04;;;;;;;1.98;1.55;;;22.20;88.60;;;;;;5007537;28;20030;-80
2022/06/06 09:13:47;;;;;;;2.22;1.52;;;22.30;88.50;;;;;;5005100;28;20025;-84
2022/06/06 09:17:00;;;;;;;2.63;1.70;;;22.40;89.20;;;;;;5005031;28;20036;-80
2022/06/06 09:20:02;;;;;;;2.08;1.70;;;22.30;88.50;;;;;;5005352;28;20022;-80
2022/06/06 09:23:44;;;;;;;2.97;1.40;;;22.40;89.70;;;;;;4999830;28;20695;-79
2022/06/06 09:26:21;;;;;;;4.45;2.00;;;22.80;86.80;;;;;;4992877;28;20030;-78
2022/06/06 09:29:08;;;;;;;1.65;1.30;;;23.30;85.10;;;;;;5010367;28;20516;-79
2022/06/06 09:31:39;;;;;;;2.10;1.75;;;23.50;82.70;;;;;;5007320;28;20030;-80
2022/06/06 09:34:12;;;;;;;;;;;23.20;82.20;;;;;;5005748;28;20032;-79
2022/06/06 09:37:01;;;;;;;1.73;1.30;;;23.30;81.90;;;;;;5007943;28;19910;-78
2022/06/06 09:39:34;;;;;;;2.30;1.35;;;23.20;81.90;;;;;;5006531;28;20037;-83
2022/06/06 09:42:15;;;;;;;2.53;1.67;;;23.00;81.00;;;;;;5009624;28;20049;-80
2022/06/06 09:45:17;;;;;;;2.60;1.50;;;23.10;82.70;;;;;;5006654;28;20077;-83
2022/06/06 09:48:00;;;;;;;1.67;1.50;;;23.10;81.60;;;;;;5008512;28;20160;-82
2022/06/06 09:50:48;;;;;;;2.88;1.67;;;22.90;84.40;;;;;;5009760;28;20029;-82
2022/06/06 09:53:13;;;;;;;3.05;1.73;;;23.00;82.60;;;;;;5013318;28;20037;-84
2022/06/06 09:59:47;;;;;;;1.35;1.25;;;23.50;80.00;;;;;;5010510;28;20572;-84
2022/06/06 10:02:24;;;;;;;2.80;1.67;;;23.80;78.50;;;;;;5011270;28;20128;-80
2022/06/06 10:05:21;;;;;;;1.70;1.48;;;24.10;79.70;;;;;;5010066;28;20034;-82
2022/06/06 10:08:26;;;;;;;1.20;0.95;;;24.30;74.70;;;;;;5010798;28;20022;-83
2022/06/06 10:11:24;;;;;;;1.67;1.35;;;24.30;74.30;;;;;;5007828;28;20432;-86
2022/06/06 10:14:17;;;;;;;1.33;1.17;;;23.90;74.70;;;;;;5012399;28;20026;-88
2022/06/06 10:17:16;;;;;;;1.90;1.42;;;24.00;74.70;;;;;;5010716;28;20085;-81
2022/06/06 10:19:54;;;;;;;2.08;1.25;;;24.10;73.70;;;;;;5008377;28;20034;-82
2022/06/06 10:22:40;;;;;;;2.50;1.40;;;24.20;76.40;;;;;;5009838;28;20453;-79
2022/06/06 10:25:41;;;;;;;2.88;1.90;;;24.40;73.20;;;;;;4999115;28;20023;-83
2022/06/06 10:28:24;;;;;;;3.78;1.85;;;24.30;73.80;;;;;;5007986;28;20117;-78
2022/06/06 10:31:26;;;;;;;2.67;1.90;;;24.10;75.10;;;;;;5006339;28;20028;-83
2022/06/06 10:33:52;;;;;;;;;;;24.20;75.70;;;;;;5004693;28;20026;-85
2022/06/06 10:36:40;;;;;;;2.35;1.50;;;24.00;75.50;;;;;;5009242;28;19929;-86
2022/06/06 10:39:36;;;;;;;1.65;1.42;;;24.10;74.40;;;;;;5008664;28;20018;-78
2022/06/06 10:42:14;;;;;;;4.03;1.65;;;23.80;75.40;;;;;;5002352;28;20034;-82
2022/06/06 10:45:11;;;;;;;1.40;1.30;;;23.70;76.20;;;;;;5006208;28;20022;-81
2022/06/06 10:48:07;;;;;;;2.03;1.77;;;23.50;76.60;;;;;;5008761;28;20033;-81
2022/06/06 10:54:01;;;;;;;1.30;1.20;;;23.90;78.20;;;;;;5007375;28;20056;-80
2022/06/06 10:57:04;;;;;;;1.88;1.50;;;24.20;75.90;;;;;;5004389;28;20042;-81
2022/06/06 10:59:58;;;;;;;1.83;1.20;;;24.70;73.90;;;;;;5010189;28;20126;-79
2022/06/06 11:02:45;;;;;;;2.47;1.40;;;25.10;71.40;;;;;;5006606;28;20615;-82
2022/06/06 11:05:22;;;;;;;2.95;1.30;;;24.90;71.50;;;;;;5007593;28;20026;-79
2022/06/06 11:08:36;;;;;;;1.38;1.10;;;25.00;71.20;;;;;;5007263;28;20042;-80
2022/06/06 11:11:26;;;;;;;1.52;1.20;;;25.50;73.60;;;;;;5003387;28;20121;-82
2022/06/06 11:14:05;;;;;;;1.50;1.40;;;25.60;67.30;;;;;;5007426;28;20117;-84
2022/06/06 11:17:25;;;;;;;1.50;1.30;;;25.80;69.40;;;;;;5003329;28;20053;-82
2022/06/06 11:20:28;;;;;;;3.05;1.08;;;26.40;69.40;;;;;;4906634;29;20065;-82
2022/06/06 11:23:18;;;;;;;1.88;1.10;;;26.40;65.90;;;;;;4904838;29;20035;-85
2022/06/06 11:26:10;;;;;;;1.35;1.10;;;27.20;64.40;;;;;;4908951;29;20020;-82
2022/06/06 11:29:03;;;;;;;1.58;1.48;;;26.60;63.50;;;;;;4983338;28;20503;-83
2022/06/06 11:31:52;;;;;;;4.18;1.48;;;26.50;63.70;;;;;;5007781;28;20060;-83
2022/06/06 11:35:01;;;;;;;1.63;1.20;;;26.20;64.40;;;;;;5002982;28;20087;-86
2022/06/06 11:37:58;;;;;;;1.77;1.30;;;27.20;64.80;;;;;;5000379;28;20046;-80
2022/06/06 11:41:00;;;;;;;1.52;1.08;;;27.90;59.00;;;;;;5009828;28;20065;-83
2022/06/06 11:43:44;;;;;;;1.58;1.42;;;28.20;58.90;;;;;;5009606;28;20068;-83
2022/06/06 11:46:30;;;;;;;1.50;1.40;;;28.20;59.60;;;;;;5008075;28;20488;-84
2022/06/06 11:49:35;;;;;;;1.67;1.25;;;28.00;58.70;;;;;;5007135;28;20030;-79
2022/06/06 11:52:04;;;;;;;1.75;1.40;;;28.40;57.30;;;;;;5006206;28;20057;-83
2022/06/06 11:55:03;;;;;;;1.67;1.30;;;29.00;58.00;;;;;;5003187;28;20025;-83
2022/06/06 11:57:50;;;;;;;2.25;1.52;;;29.20;55.60;;;;;;5003749;28;20029;-80
2022/06/06 12:00:22;;;;;;;1.35;1.25;;;28.40;56.10;;;;;;5002671;28;20026;-84
2022/06/06 12:03:06;;;;;;;5.75;1.20;;;27.50;58.50;;;;;;5006151;28;20030;-84
2022/06/06 12:06:15;;;;;;;1.23;1.13;;;27.10;58.80;;;;;;5008692;28;20026;-83
2022/06/06 12:08:58;;;;;;;1.27;1.17;;;27.00;59.60;;;;;;5007641;28;20022;-83
2022/06/06 12:11:46;;;;;;;1.45;1.30;;;27.30;60.70;;;;;;5009482;28;20163;-82
2022/06/06 12:14:30;;;;;;;1.23;1.13;;;27.50;60.00;;;;;;5000359;28;20120;-83
2022/06/06 12:17:33;;;;;;;1.95;1.33;;;27.70;59.00;;;;;;5006693;28;20057;-80
2022/06/06 12:20:35;;;;;;;2.25;1.30;;;27.60;58.50;;;;;;5005706;28;20037;-84
2022/06/06 12:23:28;;;;;;;2.22;1.30;;;27.50;59.20;;;;;;5003295;28;20072;-81
2022/06/06 12:25:58;;;;;;;3.63;1.10;;;27.40;61.90;;;;;;5006636;28;20389;-81
2022/06/06 12:28:42;;;;;;;1.42;1.13;;;27.20;60.00;;;;;;5009181;28;20018;-83
2022/06/06 12:31:28;;;;;;;2.08;1.40;;;26.50;60.10;;;;;;5003190;28;20105;-83
2022/06/06 12:34:24;;;;;;;1.88;1.15;;;25.90;63.10;;;;;;4995335;28;20040;-85
2022/06/06 12:37:07;;;;;;;1.70;1.17;;;25.40;63.50;;;;;;5009425;28;20030;-83
2022/06/06 12:39:45;;;;;;;2.55;1.75;;;25.20;64.60;;;;;;5006324;28;20135;-82
2022/06/06 12:42:14;;;;;;;1.40;1.10;;;25.20;66.10;;;;;;5009775;28;20029;-82
2022/06/06 12:45:14;;;;;;;1.20;1.10;;;25.30;65.20;;;;;;5001050;28;20030;-83
2022/06/06 12:48:01;;;;;;;2.15;1.42;;;25.50;64.30;;;;;;5004641;28;20151;-78
2022/06/06 12:50:49;;;;;;;1.15;1.00;;;26.30;63.20;;;;;;5002342;28;20018;-80
2022/06/06 12:53:49;;;;;;;1.13;1.00;;;26.80;60.80;;;;;;5006943;28;20053;-82
2022/06/06 12:56:49;;;;;;;1.80;0.90;;;27.20;60.40;;;;;;5007690;28;20076;-82
2022/06/06 12:59:33;;;;;;;3.15;1.10;;;27.10;59.10;;;;;;4983182;28;20484;-79
2022/06/06 13:02:33;;;;;;;1.20;1.10;;;27.20;58.60;;;;;;5010506;28;20436;-81
2022/06/06 13:05:25;;;;;;;1.70;1.30;;;27.80;58.50;;;;;;5003421;28;20056;-81
2022/06/06 13:08:07;;;;;;;2.25;1.30;;;29.00;58.00;;;;;;5012348;28;20058;-80
2022/06/06 13:10:41;;;;;;;1.55;1.25;;;28.40;55.60;;;;;;5009305;28;20034;-79
2022/06/06 13:13:18;;;;;;;2.40;1.42;;;28.10;56.20;;;;;;5010688;28;20117;-81
2022/06/06 13:15:51;;;;;;;1.55;1.30;;;27.50;57.10;;;;;;5012626;28;20037;-81
2022/06/06 13:18:33;;;;;;;1.27;1.13;;;28.10;57.20;;;;;;5010749;28;20113;-80
2022/06/06 13:21:14;;;;;;;1.45;1.20;;;31.40;52.40;;;;;;5010547;28;20034;-80
2022/06/06 13:24:01;;;;;;;2.03;1.27;;;34.00;46.50;;;;;;5011044;28;20030;-80
2022/06/06 13:26:48;;;;;;;1.20;1.10;;;35.80;43.00;;;;;;5006703;28;20049;-80
2022/06/06 13:29:33;;;;;;;0.88;0.88;;;37.70;39.80;;;;;;5002993;28;20029;-79
2022/06/06 13:32:07;;;;;;;1.40;1.20;;;39.00;38.00;;;;;;5010778;28;20053;-80
2022/06/06 13:34:58;;;;;;;1.95;1.40;;;40.50;36.50;;;;;;5006679;28;20105;-80
2022/06/06 13:37:42;;;;;;;1.20;1.08;;;41.30;35.10;;;;;;5011400;28;20022;-79
2022/06/06 13:40:24;;;;;;;2.70;1.05;;;38.30;36.90;;;;;;5010335;28;20409;-90
2022/06/06 13:43:11;;;;;;;1.60;1.40;;;35.80;40.60;;;;;;5012417;28;20042;-79
2022/06/06 13:45:49;;;;;;;2.72;1.17;;;34.70;42.70;;;;;;5004809;28;20022;-81
2022/06/06 13:48:15;;;;;;;1.40;1.30;;;34.20;43.00;;;;;;4999992;28;20026;-82
2022/06/06 13:50:57;;;;;;;2.10;1.08;;;33.10;43.50;;;;;;5007070;28;20050;-82
2022/06/06 13:53:25;;;;;;;1.58;1.30;;;32.00;46.50;;;;;;5009820;28;20026;-83
2022/06/06 13:56:08;;;;;;;2.35;1.23;;;31.30;47.90;;;;;;4990811;28;20057;-81
2022/06/06 13:58:55;;;;;;;1.67;1.20;;;31.20;48.00;;;;;;5009373;28;20041;-78
2022/06/06 14:01:49;;;;;;;2.72;1.33;;;33.80;46.30;;;;;;5011446;28;20037;-82
2022/06/06 14:04:42;;;;;;;3.40;1.60;;;36.30;40.20;;;;;;5015058;28;20029;-90
2022/06/06 14:07:22;;;;;;;1.23;1.13;;;37.90;39.00;;;;;;5008213;28;20027;-89
2022/06/06 14:09:57;;;;;;;1.73;1.50;;;35.60;42.60;;;;;;5011557;28;20022;-88
2022/06/06 14:12:36;;;;;;;1.38;1.23;;;33.90;42.60;;;;;;5005620;28;20040;-86
2022/06/06 14:15:09;;;;;;;1.52;1.05;;;32.50;45.40;;;;;;5009312;28;20481;-88
2022/06/06 14:17:37;;;;;;;1.40;1.20;;;31.40;47.60;;;;;;5010851;28;20493;-83
2022/06/06 14:20:12;;;;;;;2.10;1.55;;;30.30;50.10;;;;;;5006873;28;20401;-85
2022/06/06 14:22:39;;;;;;;1.98;1.55;;;31.10;48.90;;;;;;5010686;28;20490;-88
2022/06/06 14:25:07;;;;;;;1.13;1.00;;;33.10;46.50;;;;;;5010574;28;20029;-86
2022/06/06 14:27:34;;;;;;;2.15;1.33;;;34.30;41.90;;;;;;5010244;28;20477;-86